Time;durP1;ratioP1;P1;durP2;ratioP2;P2;SDS_P1;SDS_P2;PMS_P1;PMS_P2;Temp;Humidity;BMP_temperature;BMP_pressure;BME280_temperature;BME280_humidity;BME280_pressure;Samples;Min_cycle;Max_cycle;Signal;HPM_P1;HPM_P2
2022/10/31 00:00:07;;;;;;;7.93;4.90;;;12.10;99.90;;;;;;5051868;28;20232;-62
2022/10/31 00:02:34;;;;;;;9.57;4.90;;;12.20;99.90;;;;;;5052228;28;20206;-62
2022/10/31 00:05:00;;;;;;;10.40;5.17;;;12.20;99.90;;;;;;5052028;28;20233;-63
2022/10/31 00:07:27;;;;;;;8.97;5.10;;;12.20;99.90;;;;;;5051763;28;20671;-62
2022/10/31 00:09:54;;;;;;;8.07;4.43;;;12.20;99.90;;;;;;5051936;28;20205;-62
2022/10/31 00:12:22;;;;;;;9.13;4.57;;;12.10;99.90;;;;;;5051286;28;20213;-62
2022/10/31 00:14:48;;;;;;;10.27;4.47;;;12.10;99.90;;;;;;5051748;28;20218;-62
2022/10/31 00:17:15;;;;;;;12.67;5.03;;;12.10;99.90;;;;;;5051897;28;20209;-62
2022/10/31 00:19:42;;;;;;;8.27;4.60;;;12.10;99.90;;;;;;5052105;28;20714;-62
2022/10/31 00:22:08;;;;;;;9.23;4.53;;;12.10;99.90;;;;;;5051222;28;20213;-62
2022/10/31 00:24:35;;;;;;;12.43;4.93;;;12.10;99.90;;;;;;5051636;28;20723;-62
2022/10/31 00:27:02;;;;;;;12.07;4.97;;;12.10;99.90;;;;;;5051687;28;20209;-62
2022/10/31 00:29:30;;;;;;;12.33;4.80;;;12.10;99.90;;;;;;5051810;28;20213;-62
2022/10/31 00:31:57;;;;;;;9.33;4.63;;;12.10;99.90;;;;;;5051224;28;20205;-63
2022/10/31 00:34:23;;;;;;;9.90;4.63;;;12.00;99.90;;;;;;5051684;28;20236;-62
2022/10/31 00:36:50;;;;;;;9.47;4.97;;;12.00;99.90;;;;;;5051694;28;20217;-62
2022/10/31 00:39:17;;;;;;;9.87;5.10;;;12.00;99.90;;;;;;5051569;28;20210;-62
2022/10/31 00:41:43;;;;;;;8.70;5.53;;;12.00;99.90;;;;;;5050926;28;20852;-62
2022/10/31 00:44:10;;;;;;;12.43;5.20;;;11.90;99.90;;;;;;5051667;28;20236;-62
2022/10/31 00:46:38;;;;;;;9.27;4.97;;;12.00;99.90;;;;;;5051558;28;20202;-62
2022/10/31 00:49:05;;;;;;;10.60;4.93;;;12.00;99.90;;;;;;5051530;28;20228;-62
2022/10/31 00:51:31;;;;;;;11.77;5.40;;;12.00;99.90;;;;;;5050949;28;20255;-62
2022/10/31 00:53:58;;;;;;;11.77;5.60;;;12.00;99.90;;;;;;5051276;28;20586;-62
2022/10/31 00:56:25;;;;;;;10.20;5.33;;;12.00;99.90;;;;;;5051306;28;20209;-62
2022/10/31 00:58:51;;;;;;;8.27;5.13;;;12.00;99.90;;;;;;5051653;28;20209;-62
2022/10/31 01:01:18;;;;;;;9.97;5.57;;;12.00;99.90;;;;;;5054334;28;20586;-62
2022/10/31 01:03:46;;;;;;;8.13;5.07;;;12.00;99.90;;;;;;5055161;28;20229;-63
2022/10/31 01:06:14;;;;;;;7.87;4.60;;;12.00;99.90;;;;;;5055025;28;20696;-62
2022/10/31 01:08:41;;;;;;;9.33;5.07;;;12.00;99.90;;;;;;5055099;28;20634;-62
2022/10/31 01:11:11;;;;;;;8.43;4.20;;;11.90;99.90;;;;;;5054345;28;20205;-62
2022/10/31 01:13:37;;;;;;;10.93;4.93;;;11.90;99.90;;;;;;5055072;28;20230;-62
2022/10/31 01:16:06;;;;;;;11.47;5.43;;;11.90;99.90;;;;;;5054939;28;20206;-62
2022/10/31 01:18:33;;;;;;;8.67;4.47;;;11.90;99.90;;;;;;5054959;28;20221;-62
2022/10/31 01:21:04;;;;;;;10.13;4.67;;;11.90;99.90;;;;;;5054282;28;20209;-62
2022/10/31 01:23:31;;;;;;;12.37;4.87;;;12.00;99.90;;;;;;5054701;28;20633;-62
2022/10/31 01:26:02;;;;;;;9.90;5.00;;;12.00;99.90;;;;;;5054768;28;20222;-62
2022/10/31 01:28:29;;;;;;;9.50;4.77;;;12.00;99.90;;;;;;5054840;28;20202;-62
2022/10/31 01:30:56;;;;;;;10.67;4.30;;;12.00;99.90;;;;;;5054064;28;20696;-62
2022/10/31 01:33:22;;;;;;;10.47;4.57;;;11.90;99.90;;;;;;5054599;28;20238;-62
2022/10/31 01:35:49;;;;;;;8.40;5.07;;;12.00;99.90;;;;;;5054552;28;20674;-62
2022/10/31 01:38:17;;;;;;;13.30;4.87;;;12.00;99.90;;;;;;5054711;28;20206;-62
2022/10/31 01:40:44;;;;;;;12.13;5.13;;;12.10;99.90;;;;;;5054071;28;20209;-62
2022/10/31 01:43:14;;;;;;;7.47;4.60;;;12.10;99.90;;;;;;5054463;28;20225;-62
2022/10/31 01:45:42;;;;;;;10.93;5.20;;;12.10;99.90;;;;;;5054238;28;20668;-62
2022/10/31 01:48:14;;;;;;;9.23;4.90;;;12.10;99.90;;;;;;5054365;28;20209;-62
2022/10/31 01:50:42;;;;;;;9.97;4.87;;;12.10;99.90;;;;;;5053851;28;20217;-62
2022/10/31 01:53:12;;;;;;;8.83;4.80;;;12.10;99.90;;;;;;5054799;28;20720;-63
2022/10/31 01:55:43;;;;;;;7.97;4.47;;;12.10;99.90;;;;;;5054346;28;20201;-62
2022/10/31 01:58:14;;;;;;;7.20;4.60;;;12.10;99.90;;;;;;5054384;28;20217;-62
2022/10/31 02:00:45;;;;;;;14.37;5.27;;;12.20;99.90;;;;;;5053573;28;20595;-63
2022/10/31 02:03:12;;;;;;;11.03;5.40;;;12.20;99.90;;;;;;5054310;28;20244;-62
2022/10/31 02:05:39;;;;;;;10.60;4.73;;;12.20;99.90;;;;;;5054142;28;20222;-63
2022/10/31 02:08:11;;;;;;;11.17;5.10;;;12.20;99.90;;;;;;5054213;28;20201;-62
2022/10/31 02:10:40;;;;;;;7.07;4.77;;;12.20;99.90;;;;;;5053360;28;20214;-62
2022/10/31 02:13:08;;;;;;;12.33;4.40;;;12.30;99.90;;;;;;5053861;28;20747;-62
2022/10/31 02:15:38;;;;;;;9.27;4.90;;;12.30;99.90;;;;;;5053560;28;20212;-62
2022/10/31 02:18:05;;;;;;;9.60;4.57;;;12.30;99.90;;;;;;5054331;28;20209;-63
2022/10/31 02:20:36;;;;;;;6.03;4.10;;;12.30;99.90;;;;;;5053323;28;20229;-63
2022/10/31 02:23:43;;;;;;;8.80;4.20;;;12.30;99.90;;;;;;5053825;28;20233;-63
2022/10/31 02:26:32;;;;;;;10.53;4.37;;;12.40;99.90;;;;;;5053810;28;20282;-62
2022/10/31 02:29:34;;;;;;;9.43;4.30;;;12.30;99.90;;;;;;5053820;28;20213;-63
2022/10/31 02:32:11;;;;;;;7.53;4.37;;;12.30;99.90;;;;;;5052596;28;20214;-63
2022/10/31 02:34:45;;;;;;;9.93;4.17;;;12.30;99.90;;;;;;5053743;28;20244;-63
2022/10/31 02:37:15;;;;;;;9.03;4.63;;;12.20;99.90;;;;;;5053802;28;20221;-63
2022/10/31 02:39:50;;;;;;;13.87;4.63;;;12.20;99.90;;;;;;5053884;28;20212;-63
2022/10/31 02:42:25;;;;;;;8.10;4.40;;;12.20;99.90;;;;;;5052824;28;20212;-63
2022/10/31 02:44:56;;;;;;;7.43;4.27;;;12.30;99.90;;;;;;5053224;28;20635;-63
2022/10/31 02:47:28;;;;;;;8.33;4.07;;;12.30;99.90;;;;;;5053463;28;20209;-63
2022/10/31 02:50:00;;;;;;;10.00;4.60;;;12.30;99.90;;;;;;5053324;28;20213;-63
2022/10/31 02:52:29;;;;;;;8.30;3.57;;;12.30;99.90;;;;;;5052757;28;20206;-63
2022/10/31 02:54:56;;;;;;;6.63;3.90;;;12.30;99.90;;;;;;5053064;28;20208;-63
2022/10/31 02:57:26;;;;;;;8.83;3.80;;;12.20;99.90;;;;;;5053207;28;20220;-63
2022/10/31 02:59:56;;;;;;;7.27;3.57;;;12.10;99.90;;;;;;5053344;28;20209;-63
2022/10/31 03:02:48;;;;;;;4.43;3.60;;;12.10;99.90;;;;;;5052349;28;20213;-63
2022/10/31 03:05:44;;;;;;;7.37;3.77;;;12.10;99.90;;;;;;5052538;28;20644;-63
2022/10/31 03:08:19;;;;;;;5.83;3.47;;;11.80;99.90;;;;;;5053119;28;20206;-63
2022/10/31 03:10:53;;;;;;;10.60;3.93;;;12.00;99.90;;;;;;5052576;28;20216;-63
2022/10/31 03:13:30;;;;;;;5.17;3.90;;;12.00;99.90;;;;;;5052657;28;20225;-63
2022/10/31 03:16:05;;;;;;;7.93;3.60;;;12.00;99.90;;;;;;5052627;28;20673;-63
2022/10/31 03:18:37;;;;;;;8.97;3.40;;;11.90;99.90;;;;;;5052625;28;20669;-63
2022/10/31 03:21:10;;;;;;;6.23;4.00;;;11.90;99.90;;;;;;5052255;28;20213;-65
2022/10/31 03:23:38;;;;;;;7.57;4.13;;;11.90;99.90;;;;;;5051964;28;20226;-63
2022/10/31 03:26:08;;;;;;;7.57;4.07;;;11.80;99.90;;;;;;5052424;28;20221;-63
2022/10/31 03:28:40;;;;;;;5.50;3.93;;;11.80;99.90;;;;;;5052390;28;20220;-63
2022/10/31 03:31:09;;;;;;;7.47;4.20;;;11.80;99.90;;;;;;5052078;28;20209;-63
2022/10/31 03:33:41;;;;;;;6.87;4.33;;;11.80;99.90;;;;;;5052383;28;20232;-63
2022/10/31 03:36:11;;;;;;;7.90;4.20;;;11.70;99.90;;;;;;5052948;28;20224;-63
2022/10/31 03:38:41;;;;;;;8.23;4.07;;;11.70;99.90;;;;;;5052972;28;20208;-63
2022/10/31 03:41:14;;;;;;;9.87;3.90;;;11.70;99.90;;;;;;5052383;28;20208;-61
2022/10/31 03:43:47;;;;;;;11.27;3.87;;;11.70;99.90;;;;;;5053335;28;20709;-61
2022/10/31 03:46:14;;;;;;;7.67;4.30;;;11.60;99.90;;;;;;5052899;28;20230;-61
2022/10/31 03:48:42;;;;;;;8.17;3.87;;;11.50;99.90;;;;;;5052430;28;20201;-61
2022/10/31 03:51:15;;;;;;;9.17;4.00;;;11.50;99.90;;;;;;5051527;28;20232;-62
2022/10/31 03:53:50;;;;;;;8.57;3.97;;;11.50;99.90;;;;;;5052017;28;20237;-61
2022/10/31 03:56:23;;;;;;;6.43;3.60;;;11.50;99.90;;;;;;5052347;28;20197;-61
2022/10/31 03:58:56;;;;;;;8.63;4.53;;;11.50;99.90;;;;;;5052569;28;20206;-61
2022/10/31 04:01:25;;;;;;;7.67;4.03;;;11.60;99.90;;;;;;5051863;28;20212;-61
2022/10/31 04:03:54;;;;;;;7.27;4.27;;;11.50;99.90;;;;;;5051848;28;20230;-61
2022/10/31 04:06:23;;;;;;;9.77;4.13;;;11.50;99.90;;;;;;5051920;28;20225;-62
2022/10/31 04:08:54;;;;;;;12.30;4.30;;;11.60;99.90;;;;;;5051482;28;20688;-61
2022/10/31 04:11:26;;;;;;;9.87;4.73;;;11.60;99.90;;;;;;5051252;28;20206;-62
2022/10/31 04:13:54;;;;;;;12.03;4.83;;;11.60;99.90;;;;;;5051789;28;20230;-61
2022/10/31 04:16:22;;;;;;;8.10;3.83;;;11.60;99.90;;;;;;5051766;28;20228;-61
2022/10/31 04:18:49;;;;;;;7.57;3.90;;;11.60;99.90;;;;;;5051747;28;20678;-62
2022/10/31 04:21:17;;;;;;;7.50;4.53;;;11.70;99.90;;;;;;5051355;28;20206;-62
2022/10/31 04:23:44;;;;;;;7.97;3.80;;;11.70;99.90;;;;;;5051929;28;20226;-61
2022/10/31 04:26:12;;;;;;;7.17;4.37;;;11.70;99.90;;;;;;5051605;28;20228;-62
2022/10/31 04:28:38;;;;;;;6.57;4.23;;;11.80;99.90;;;;;;5051607;28;20580;-62
2022/10/31 04:31:05;;;;;;;6.57;3.83;;;11.80;99.90;;;;;;5051035;28;20209;-62
2022/10/31 04:33:32;;;;;;;5.83;4.00;;;11.80;99.90;;;;;;5052664;28;20229;-62
2022/10/31 04:35:59;;;;;;;11.93;3.97;;;11.80;99.90;;;;;;5055816;28;20197;-62
2022/10/31 04:38:27;;;;;;;9.00;4.20;;;11.80;99.90;;;;;;5055735;28;20210;-61
2022/10/31 04:40:53;;;;;;;9.07;4.10;;;11.90;99.90;;;;;;5055513;28;20378;-62
2022/10/31 04:43:20;;;;;;;6.97;3.67;;;11.90;99.90;;;;;;5055430;28;20712;-62
2022/10/31 04:45:47;;;;;;;13.60;7.40;;;11.80;99.90;;;;;;5055622;28;20233;-62
2022/10/31 04:48:14;;;;;;;18.70;10.60;;;11.80;99.90;;;;;;5055528;28;20741;-62
2022/10/31 04:50:41;;;;;;;8.83;4.97;;;11.80;99.90;;;;;;5054973;28;20213;-62
2022/10/31 04:53:07;;;;;;;12.53;5.23;;;11.80;99.90;;;;;;5055272;28;20245;-62
2022/10/31 04:55:36;;;;;;;6.87;4.63;;;11.70;99.90;;;;;;5055415;28;20205;-62
2022/10/31 04:58:02;;;;;;;7.00;4.20;;;11.60;99.90;;;;;;5055104;28;20205;-62
2022/10/31 05:00:29;;;;;;;10.93;4.23;;;11.60;99.90;;;;;;5055521;28;20628;-62
2022/10/31 05:02:57;;;;;;;7.33;3.93;;;11.60;99.90;;;;;;5054741;28;20226;-62
2022/10/31 05:05:27;;;;;;;7.87;4.40;;;11.50;99.90;;;;;;5055103;28;20252;-62
2022/10/31 05:07:54;;;;;;;8.43;4.77;;;11.50;99.90;;;;;;5055276;28;20209;-62
2022/10/31 05:10:23;;;;;;;9.83;3.80;;;11.40;99.90;;;;;;5054919;28;20209;-64
2022/10/31 05:12:53;;;;;;;7.83;4.07;;;11.40;99.90;;;;;;5054673;28;20237;-62
2022/10/31 05:15:22;;;;;;;6.30;3.33;;;11.40;99.90;;;;;;5055194;28;20210;-62
2022/10/31 05:17:49;;;;;;;7.30;3.93;;;11.30;99.90;;;;;;5054880;28;20692;-64
2022/10/31 05:20:17;;;;;;;7.40;4.23;;;11.20;99.90;;;;;;5055043;28;20229;-62
2022/10/31 05:22:45;;;;;;;7.53;4.07;;;11.20;99.90;;;;;;5054129;28;20214;-64
2022/10/31 05:25:12;;;;;;;8.27;4.70;;;11.20;99.90;;;;;;5054613;28;20220;-64
2022/10/31 05:27:40;;;;;;;12.07;7.67;;;11.10;99.90;;;;;;5054960;28;20208;-62
2022/10/31 05:30:09;;;;;;;7.17;4.40;;;11.10;99.90;;;;;;5054874;28;20237;-62
2022/10/31 05:32:39;;;;;;;9.00;6.50;;;11.10;99.90;;;;;;5053825;28;20688;-64
2022/10/31 05:35:08;;;;;;;8.93;4.67;;;11.10;99.90;;;;;;5054534;28;20237;-64
2022/10/31 05:37:34;;;;;;;9.63;6.57;;;11.10;99.90;;;;;;5054376;28;20213;-64
2022/10/31 05:40:01;;;;;;;6.63;3.87;;;11.10;99.90;;;;;;5054699;28;20213;-62
2022/10/31 05:42:28;;;;;;;13.57;9.23;;;11.10;99.90;;;;;;5053993;28;20205;-62
2022/10/31 05:44:55;;;;;;;7.07;5.33;;;11.00;99.90;;;;;;5054083;28;20224;-62
2022/10/31 05:47:23;;;;;;;11.23;4.83;;;11.00;99.90;;;;;;5054048;28;20225;-64
2022/10/31 05:49:50;;;;;;;6.27;4.37;;;11.00;99.90;;;;;;5054219;28;20217;-64
2022/10/31 05:52:16;;;;;;;8.60;5.13;;;11.00;99.90;;;;;;5053620;28;20654;-64
2022/10/31 05:54:43;;;;;;;8.27;5.07;;;11.00;99.90;;;;;;5053947;28;20233;-64
2022/10/31 05:57:10;;;;;;;7.73;4.87;;;11.00;99.90;;;;;;5054334;28;20205;-64
2022/10/31 05:59:37;;;;;;;8.67;4.80;;;11.00;99.90;;;;;;5054255;28;20202;-64
2022/10/31 06:02:03;;;;;;;8.20;4.50;;;11.00;99.90;;;;;;5053474;28;20206;-64
2022/10/31 06:04:31;;;;;;;6.20;3.93;;;11.00;99.90;;;;;;5053969;28;20589;-62
2022/10/31 06:06:58;;;;;;;9.23;5.00;;;11.00;99.90;;;;;;5053870;28;20229;-62
2022/10/31 06:09:25;;;;;;;10.30;4.77;;;11.00;99.90;;;;;;5053884;28;20206;-62
2022/10/31 06:11:52;;;;;;;6.27;4.20;;;11.00;99.90;;;;;;5053528;28;20210;-62
2022/10/31 06:14:18;;;;;;;7.00;4.30;;;11.00;99.90;;;;;;5053921;28;20228;-62
2022/10/31 06:16:45;;;;;;;23.07;13.63;;;11.00;99.90;;;;;;5053568;28;20563;-62
2022/10/31 06:19:12;;;;;;;6.37;5.00;;;11.10;99.90;;;;;;5053783;28;20259;-62
2022/10/31 06:21:40;;;;;;;10.27;5.57;;;11.10;99.90;;;;;;5053190;28;20558;-62
2022/10/31 06:24:07;;;;;;;8.70;4.20;;;11.20;99.90;;;;;;5053454;28;20232;-62
2022/10/31 06:26:33;;;;;;;8.93;4.97;;;11.20;99.90;;;;;;5053636;28;20232;-62
2022/10/31 06:29:00;;;;;;;11.23;7.03;;;11.20;99.90;;;;;;5053696;28;20205;-63
2022/10/31 06:31:27;;;;;;;28.80;18.77;;;11.20;99.90;;;;;;5053049;28;20209;-62
2022/10/31 06:33:53;;;;;;;19.33;11.20;;;11.30;99.90;;;;;;5053448;28;20234;-62
2022/10/31 06:36:20;;;;;;;10.10;5.70;;;11.30;99.90;;;;;;5053386;28;20612;-62
2022/10/31 06:38:48;;;;;;;9.40;4.70;;;11.40;99.90;;;;;;5053478;28;20209;-62
2022/10/31 06:41:15;;;;;;;6.00;4.60;;;11.40;99.90;;;;;;5052849;28;20212;-62
2022/10/31 06:43:41;;;;;;;8.63;4.53;;;11.60;99.90;;;;;;5053260;28;20646;-62
2022/10/31 06:46:08;;;;;;;7.33;4.17;;;11.70;99.90;;;;;;5053056;28;20218;-63
2022/10/31 06:48:35;;;;;;;9.63;4.03;;;12.00;99.90;;;;;;5053256;28;20717;-62
2022/10/31 06:51:02;;;;;;;8.73;3.80;;;12.40;99.90;;;;;;5052674;28;20210;-62
2022/10/31 06:53:29;;;;;;;8.67;3.90;;;12.90;99.90;;;;;;5053035;28;20290;-62
2022/10/31 06:55:57;;;;;;;7.40;4.00;;;13.20;99.90;;;;;;5053386;28;20201;-62
2022/10/31 06:58:24;;;;;;;8.63;3.67;;;13.30;99.90;;;;;;5052276;28;20206;-62
2022/10/31 07:00:51;;;;;;;5.20;3.87;;;13.20;99.90;;;;;;5052626;28;20210;-61
2022/10/31 07:03:20;;;;;;;7.23;3.70;;;13.20;99.90;;;;;;5053551;28;20233;-62
2022/10/31 07:05:46;;;;;;;5.97;3.77;;;13.10;99.90;;;;;;5053555;28;20677;-61
2022/10/31 07:08:14;;;;;;;7.77;3.90;;;13.10;99.90;;;;;;5053672;28;20206;-61
2022/10/31 07:10:43;;;;;;;6.57;3.93;;;13.00;99.90;;;;;;5053324;28;20213;-62
2022/10/31 07:13:14;;;;;;;11.80;4.33;;;13.00;99.90;;;;;;5052539;28;20229;-62
2022/10/31 07:15:42;;;;;;;8.20;4.37;;;13.00;99.90;;;;;;5052942;28;20681;-62
2022/10/31 07:18:17;;;;;;;12.90;6.97;;;13.00;99.90;;;;;;5109924;27;20549;-61
2022/10/31 07:20:43;;;;;;;6.00;3.90;;;13.00;99.90;;;;;;5110796;28;20629;-61
2022/10/31 07:23:11;;;;;;;6.03;3.43;;;13.10;99.90;;;;;;5104061;28;20235;-62
2022/10/31 07:25:38;;;;;;;5.90;3.80;;;13.10;99.90;;;;;;5089633;28;20227;-61
2022/10/31 07:28:05;;;;;;;6.70;3.47;;;13.00;99.90;;;;;;5089332;28;20200;-62
2022/10/31 07:30:32;;;;;;;4.70;3.23;;;12.90;99.90;;;;;;5089815;28;20640;-61
2022/10/31 07:32:59;;;;;;;6.57;3.63;;;12.90;99.90;;;;;;5088784;28;20243;-60
2022/10/31 07:35:28;;;;;;;7.37;3.80;;;12.70;99.90;;;;;;5089147;28;20668;-60
2022/10/31 07:37:55;;;;;;;10.37;3.93;;;12.60;99.90;;;;;;5088989;28;20230;-60
2022/10/31 07:40:23;;;;;;;7.07;3.60;;;12.60;99.90;;;;;;5089029;28;20205;-59
2022/10/31 07:42:51;;;;;;;6.77;3.70;;;12.60;99.90;;;;;;5088483;28;20224;-61
2022/10/31 07:45:20;;;;;;;6.07;4.07;;;12.70;99.90;;;;;;5089254;28;20215;-59
2022/10/31 07:47:48;;;;;;;5.43;3.57;;;12.90;99.90;;;;;;5089066;28;20201;-60
2022/10/31 07:50:17;;;;;;;7.93;4.43;;;13.10;99.90;;;;;;5089331;28;20211;-60
2022/10/31 07:52:45;;;;;;;7.13;3.50;;;13.30;99.90;;;;;;5089054;28;20204;-59
2022/10/31 07:55:12;;;;;;;8.77;4.27;;;13.50;99.90;;;;;;5089500;28;20208;-59
2022/10/31 07:57:39;;;;;;;6.37;3.83;;;13.60;99.90;;;;;;5089481;28;20228;-59
2022/10/31 08:00:07;;;;;;;7.23;3.63;;;13.70;99.90;;;;;;5089440;28;20208;-60
2022/10/31 08:02:34;;;;;;;5.23;3.50;;;13.70;99.90;;;;;;5088355;28;20212;-60
2022/10/31 08:05:01;;;;;;;8.17;3.97;;;13.80;99.90;;;;;;5088675;28;20208;-60
2022/10/31 08:07:29;;;;;;;8.10;3.97;;;13.90;99.90;;;;;;5088455;28;20253;-60
2022/10/31 08:09:57;;;;;;;5.60;3.77;;;14.00;99.90;;;;;;5088667;28;20205;-60
2022/10/31 08:12:24;;;;;;;5.67;3.83;;;14.20;99.90;;;;;;5088483;28;20628;-60
2022/10/31 08:14:50;;;;;;;9.50;6.23;;;14.40;99.90;;;;;;5088836;28;20302;-60
2022/10/31 08:17:17;;;;;;;7.30;4.40;;;14.50;99.90;;;;;;5088223;28;20327;-61
2022/10/31 08:19:44;;;;;;;4.50;3.90;;;14.70;99.90;;;;;;5088426;28;20204;-60
2022/10/31 08:22:11;;;;;;;6.20;4.00;;;14.90;99.90;;;;;;5087883;28;20204;-60
2022/10/31 08:24:38;;;;;;;6.33;3.57;;;15.00;99.90;;;;;;5088751;28;20315;-60
2022/10/31 08:27:06;;;;;;;7.47;3.83;;;15.10;99.90;;;;;;5088320;28;20200;-61
2022/10/31 08:29:32;;;;;;;5.90;4.20;;;15.20;99.90;;;;;;5075516;28;20576;-61
2022/10/31 08:31:59;;;;;;;8.33;3.93;;;15.10;99.90;;;;;;5074206;28;20216;-59
2022/10/31 08:34:26;;;;;;;9.67;3.97;;;15.00;99.90;;;;;;5074679;28;20233;-60
2022/10/31 08:36:53;;;;;;;7.07;3.83;;;14.90;99.90;;;;;;5074476;28;20227;-60
2022/10/31 08:39:20;;;;;;;6.83;3.90;;;14.80;99.90;;;;;;5074542;28;20706;-60
2022/10/31 08:41:47;;;;;;;7.23;3.77;;;14.70;99.90;;;;;;5074237;28;20205;-59
2022/10/31 08:44:15;;;;;;;7.50;3.80;;;14.80;99.90;;;;;;5074563;28;20399;-60
2022/10/31 08:46:42;;;;;;;10.18;3.90;;;15.10;99.90;;;;;;5074607;28;20201;-61
2022/10/31 08:49:08;;;;;;;8.27;4.67;;;15.30;99.90;;;;;;5074347;28;20306;-59
2022/10/31 08:51:35;;;;;;;12.27;4.10;;;15.60;99.90;;;;;;5074126;28;20628;-59
2022/10/31 08:54:02;;;;;;;9.20;4.20;;;15.80;99.90;;;;;;5079907;28;20231;-63
2022/10/31 08:56:29;;;;;;;8.67;4.00;;;16.00;99.90;;;;;;5082858;28;20201;-66
2022/10/31 08:58:56;;;;;;;8.13;4.10;;;16.10;99.90;;;;;;5073263;28;20209;-68
2022/10/31 09:01:24;;;;;;;11.32;4.25;;;16.30;99.90;;;;;;5072763;28;20232;-63
2022/10/31 09:03:51;;;;;;;6.70;3.70;;;16.50;99.90;;;;;;5072535;28;20251;-65
2022/10/31 09:06:18;;;;;;;7.57;3.92;;;16.70;99.90;;;;;;5072859;28;20235;-63
2022/10/31 09:08:45;;;;;;;7.05;3.95;;;16.90;99.90;;;;;;5072577;28;20205;-64
2022/10/31 09:11:11;;;;;;;5.25;3.65;;;17.10;99.90;;;;;;5072600;28;20204;-64
2022/10/31 09:13:38;;;;;;;8.32;4.30;;;17.30;99.90;;;;;;5072838;28;20291;-63
2022/10/31 09:16:05;;;;;;;5.72;3.78;;;17.40;99.90;;;;;;5072605;28;20212;-64
2022/10/31 09:18:33;;;;;;;7.55;4.28;;;17.50;99.90;;;;;;5072207;28;20282;-64
2022/10/31 09:21:01;;;;;;;5.93;3.95;;;17.70;99.90;;;;;;5073489;28;20224;-64
2022/10/31 09:23:28;;;;;;;8.90;4.30;;;17.90;99.90;;;;;;5074055;28;20225;-61
2022/10/31 09:25:56;;;;;;;7.85;4.13;;;18.00;99.90;;;;;;5074285;28;20204;-63
2022/10/31 09:28:24;;;;;;;7.75;3.95;;;18.10;99.90;;;;;;5073128;28;20575;-66
2022/10/31 09:30:53;;;;;;;13.32;4.22;;;18.20;99.90;;;;;;5072674;28;20691;-64
2022/10/31 09:33:20;;;;;;;8.63;4.78;;;18.20;99.90;;;;;;5072421;28;20919;-64
2022/10/31 09:35:49;;;;;;;6.00;4.25;;;18.30;99.90;;;;;;5073402;28;20228;-68
2022/10/31 09:38:18;;;;;;;7.38;4.43;;;18.40;99.90;;;;;;5072836;28;20225;-64
2022/10/31 09:40:48;;;;;;;7.22;4.13;;;18.50;99.90;;;;;;5071960;28;20293;-67
2022/10/31 09:43:19;;;;;;;8.35;4.28;;;18.60;99.90;;;;;;5071948;28;20220;-67
2022/10/31 09:45:55;;;;;;;7.57;3.95;;;18.50;99.90;;;;;;5073965;28;20209;-63
2022/10/31 09:48:36;;;;;;;10.90;4.10;;;18.60;99.90;;;;;;5073754;28;20212;-63
2022/10/31 09:51:09;;;;;;;8.10;4.30;;;18.60;99.90;;;;;;5073314;28;20692;-61
2022/10/31 09:53:41;;;;;;;9.88;4.00;;;18.40;99.90;;;;;;5073451;28;20232;-64
2022/10/31 09:56:12;;;;;;;38.60;24.50;;;18.50;99.90;;;;;;5073538;28;20213;-62
2022/10/31 09:58:43;;;;;;;9.13;4.32;;;18.70;99.90;;;;;;5073265;28;20270;-62
2022/10/31 10:01:29;;;;;;;9.07;4.38;;;18.90;99.90;;;;;;5072565;28;20262;-64
2022/10/31 10:04:00;;;;;;;5.43;4.05;;;19.00;99.90;;;;;;5072825;28;20231;-63
2022/10/31 10:06:30;;;;;;;7.50;4.07;;;19.10;99.90;;;;;;5072821;28;20593;-63
2022/10/31 10:08:57;;;;;;;7.65;4.03;;;18.90;99.90;;;;;;5073348;28;20201;-62
2022/10/31 10:11:41;;;;;;;9.82;4.45;;;18.70;99.90;;;;;;5072201;28;20243;-63
2022/10/31 10:14:23;;;;;;;11.02;5.38;;;18.70;99.90;;;;;;5073031;28;20734;-62
2022/10/31 10:17:07;;;;;;;10.05;4.28;;;18.80;99.90;;;;;;5073818;28;20209;-62
2022/10/31 10:19:52;;;;;;;12.25;4.80;;;18.90;99.90;;;;;;5081630;28;20201;-62
2022/10/31 10:22:28;;;;;;;7.70;4.25;;;19.20;99.90;;;;;;5075447;28;20661;-62
2022/10/31 10:25:08;;;;;;;10.30;4.78;;;19.40;99.90;;;;;;5074272;28;20209;-62
2022/10/31 10:27:48;;;;;;;8.45;4.28;;;19.60;99.90;;;;;;5073013;28;20209;-61
2022/10/31 10:30:18;;;;;;;8.13;4.20;;;19.80;99.90;;;;;;5073030;28;20209;-63
2022/10/31 10:32:47;;;;;;;9.10;4.40;;;20.00;99.90;;;;;;5072058;28;20223;-64
2022/10/31 10:35:21;;;;;;;8.60;4.20;;;20.20;99.90;;;;;;5072265;28;20661;-64
2022/10/31 10:37:53;;;;;;;7.80;4.25;;;20.30;99.90;;;;;;5072451;28;20227;-63
2022/10/31 10:40:23;;;;;;;9.35;4.45;;;20.40;99.90;;;;;;5072745;28;20338;-64
2022/10/31 10:48:43;;;;;;;7.65;4.38;;;20.00;99.90;;;;;;5072956;28;20200;-62
2022/10/31 10:51:21;;;;;;;8.43;4.53;;;19.80;99.90;;;;;;5072203;28;20204;-62
2022/10/31 10:54:01;;;;;;;7.38;4.00;;;19.70;99.90;;;;;;5072159;28;20715;-63
2022/10/31 10:56:46;;;;;;;11.35;4.32;;;19.70;99.90;;;;;;5072133;28;20684;-62
2022/10/31 10:59:17;;;;;;;8.55;4.35;;;20.00;99.90;;;;;;5072325;28;20225;-63
2022/10/31 11:01:45;;;;;;;10.52;4.97;;;20.30;99.90;;;;;;5071525;28;20695;-63
2022/10/31 11:04:29;;;;;;;12.90;4.63;;;20.40;99.90;;;;;;5072149;28;20225;-63
2022/10/31 11:07:04;;;;;;;10.13;4.22;;;20.30;99.90;;;;;;5072636;28;20212;-63
2022/10/31 11:09:33;;;;;;;7.55;4.75;;;20.20;99.90;;;;;;5072403;28;20212;-62
2022/10/31 11:12:01;;;;;;;8.02;5.05;;;20.10;99.90;;;;;;5071301;28;20576;-62
2022/10/31 11:14:29;;;;;;;11.30;5.55;;;20.20;99.90;;;;;;5071865;28;20244;-62
2022/10/31 11:17:09;;;;;;;7.63;4.57;;;20.50;99.90;;;;;;5071717;28;20220;-62
2022/10/31 11:19:36;;;;;;;10.30;4.68;;;20.70;99.90;;;;;;5072125;28;20220;-63
2022/10/31 11:22:08;;;;;;;11.27;4.20;;;20.90;99.90;;;;;;5071597;28;20207;-61
2022/10/31 11:24:41;;;;;;;8.93;4.80;;;21.10;99.90;;;;;;5071852;28;20228;-61
2022/10/31 11:27:22;;;;;;;9.75;4.55;;;21.20;99.90;;;;;;5071923;28;20213;-63
2022/10/31 11:29:50;;;;;;;8.30;4.57;;;21.30;99.90;;;;;;5072030;28;20233;-62
2022/10/31 11:32:21;;;;;;;7.72;4.35;;;21.40;99.90;;;;;;5071535;28;20201;-61
2022/10/31 11:34:52;;;;;;;10.13;4.88;;;21.50;99.90;;;;;;5072982;28;20228;-65
2022/10/31 11:37:22;;;;;;;8.50;4.50;;;21.60;99.90;;;;;;5071946;28;20209;-62
2022/10/31 11:39:56;;;;;;;10.43;5.07;;;21.70;99.90;;;;;;5071599;28;20208;-62
2022/10/31 11:42:26;;;;;;;8.15;4.03;;;21.70;99.90;;;;;;5070935;28;20712;-62
2022/10/31 11:44:54;;;;;;;9.25;4.72;;;21.70;99.90;;;;;;5071973;28;20225;-63
2022/10/31 11:47:27;;;;;;;8.38;4.53;;;21.40;99.90;;;;;;5071871;28;20201;-61
2022/10/31 11:49:55;;;;;;;9.43;4.72;;;21.20;99.90;;;;;;5072990;28;20201;-62
2022/10/31 11:52:26;;;;;;;9.75;4.78;;;21.30;99.90;;;;;;5072121;28;20213;-63
2022/10/31 11:54:56;;;;;;;8.15;4.50;;;21.50;99.90;;;;;;5074106;28;20240;-64
2022/10/31 11:57:28;;;;;;;8.00;4.38;;;21.50;99.90;;;;;;5075641;28;20208;-64
2022/10/31 11:59:57;;;;;;;16.10;4.82;;;21.70;99.90;;;;;;5074614;28;20211;-63
2022/10/31 12:02:24;;;;;;;8.50;4.32;;;21.80;99.90;;;;;;5072218;28;20201;-62
2022/10/31 12:04:59;;;;;;;10.93;4.55;;;21.90;99.90;;;;;;5075927;28;20224;-62
2022/10/31 12:07:26;;;;;;;8.75;4.40;;;22.10;99.90;;;;;;5077218;28;20215;-62
2022/10/31 12:09:54;;;;;;;12.48;4.30;;;22.20;99.90;;;;;;5077576;28;20205;-64
2022/10/31 12:12:40;;;;;;;8.20;4.20;;;22.40;99.90;;;;;;5077204;28;20208;-64
2022/10/31 12:15:24;;;;;;;11.40;4.63;;;22.50;99.90;;;;;;5076922;28;20270;-62
2022/10/31 12:18:01;;;;;;;10.20;5.43;;;22.70;99.90;;;;;;5076621;28;20252;-63
2022/10/31 12:20:37;;;;;;;13.13;6.32;;;22.60;99.90;;;;;;5075757;28;20299;-61
2022/10/31 12:23:14;;;;;;;8.25;4.43;;;22.40;99.90;;;;;;5074699;28;20278;-61
2022/10/31 12:25:46;;;;;;;9.18;4.60;;;22.50;99.90;;;;;;5075175;28;20219;-62
2022/10/31 12:28:35;;;;;;;11.38;4.40;;;22.50;99.90;;;;;;5075314;28;20212;-62
2022/10/31 12:31:14;;;;;;;8.05;4.57;;;22.60;99.90;;;;;;5074840;28;20209;-64
2022/10/31 12:33:50;;;;;;;8.20;3.83;;;22.60;99.90;;;;;;5073850;28;20234;-62
2022/10/31 12:36:35;;;;;;;9.23;4.25;;;22.30;99.90;;;;;;5074438;28;20668;-62
2022/10/31 12:39:25;;;;;;;11.73;4.32;;;22.00;99.90;;;;;;5074570;28;20225;-63
2022/10/31 12:41:58;;;;;;;8.65;4.40;;;21.90;99.90;;;;;;5073852;28;20569;-63
2022/10/31 12:45:03;;;;;;;13.02;4.30;;;21.80;99.90;;;;;;5074358;28;20236;-62
2022/10/31 12:48:03;;;;;;;8.35;4.53;;;21.90;99.90;;;;;;5067668;28;20209;-63
2022/10/31 12:50:51;;;;;;;11.25;4.70;;;21.90;99.90;;;;;;5074203;28;20231;-63
2022/10/31 12:53:28;;;;;;;8.98;4.70;;;21.80;99.90;;;;;;5073889;28;20236;-61
2022/10/31 12:56:06;;;;;;;10.00;4.97;;;21.70;99.90;;;;;;5074219;28;20617;-62
2022/10/31 12:58:38;;;;;;;8.05;4.55;;;21.80;99.90;;;;;;5074112;28;20243;-62
2022/10/31 13:01:12;;;;;;;8.50;4.25;;;21.90;99.90;;;;;;5074138;28;20205;-63
2022/10/31 13:03:47;;;;;;;9.18;4.13;;;22.10;99.90;;;;;;5073629;28;20229;-63